sensor_id;sensor_type;location;lat;lon;timestamp;temperature;humidity
30889;DHT22;51092;50.874;7.024;2023-03-01T00:00:35;-0.50;60.70
30889;DHT22;51092;50.874;7.024;2023-03-01T00:01:38;-0.50;60.90
30889;DHT22;51092;50.874;7.024;2023-03-01T00:02:39;-0.60;60.90
30889;DHT22;51092;50.874;7.024;2023-03-01T00:03:42;-0.60;61.10
30889;DHT22;51092;50.874;7.024;2023-03-01T00:04:44;-0.60;61.00
30889;DHT22;51092;50.874;7.024;2023-03-01T00:05:46;-0.60;61.00
30889;DHT22;51092;50.874;7.024;2023-03-01T00:06:47;-0.60;61.10
30889;DHT22;51092;50.874;7.024;2023-03-01T00:07:52;-0.60;61.10
30889;DHT22;51092;50.874;7.024;2023-03-01T00:08:53;-0.60;61.20
30889;DHT22;51092;50.874;7.024;2023-03-01T00:09:56;-0.60;61.20
30889;DHT22;51092;50.874;7.024;2023-03-01T00:11:04;-0.60;61.20
30889;DHT22;51092;50.874;7.024;2023-03-01T00:12:07;-0.50;60.90
30889;DHT22;51092;50.874;7.024;2023-03-01T00:13:09;-0.50;60.80
30889;DHT22;51092;50.874;7.024;2023-03-01T00:14:11;-0.50;60.90
30889;DHT22;51092;50.874;7.024;2023-03-01T00:15:13;-0.50;60.90
30889;DHT22;51092;50.874;7.024;2023-03-01T00:16:21;-0.50;61.00
30889;DHT22;51092;50.874;7.024;2023-03-01T00:17:23;-0.60;61.10
30889;DHT22;51092;50.874;7.024;2023-03-01T00:18:25;-0.50;61.00
30889;DHT22;51092;50.874;7.024;2023-03-01T00:19:27;-0.60;61.20
30889;DHT22;51092;50.874;7.024;2023-03-01T00:20:29;-0.60;61.20
30889;DHT22;51092;50.874;7.024;2023-03-01T00:21:31;-0.60;61.30
30889;DHT22;51092;50.874;7.024;2023-03-01T00:22:33;-0.60;61.40
30889;DHT22;51092;50.874;7.024;2023-03-01T00:23:37;-0.60;61.40
30889;DHT22;51092;50.874;7.024;2023-03-01T00:24:38;-0.60;61.40
30889;DHT22;51092;50.874;7.024;2023-03-01T00:25:41;-0.60;61.40
30889;DHT22;51092;50.874;7.024;2023-03-01T00:26:43;-0.60;61.50
30889;DHT22;51092;50.874;7.024;2023-03-01T00:27:46;-0.60;61.40
30889;DHT22;51092;50.874;7.024;2023-03-01T00:28:50;-0.60;61.40
30889;DHT22;51092;50.874;7.024;2023-03-01T00:29:53;-0.60;61.60
30889;DHT22;51092;50.874;7.024;2023-03-01T00:30:54;-0.60;61.70
30889;DHT22;51092;50.874;7.024;2023-03-01T00:32:00;-0.60;61.70
30889;DHT22;51092;50.874;7.024;2023-03-01T00:33:02;-0.50;61.40
30889;DHT22;51092;50.874;7.024;2023-03-01T00:34:05;-0.50;61.40
30889;DHT22;51092;50.874;7.024;2023-03-01T00:35:07;-0.40;61.00
30889;DHT22;51092;50.874;7.024;2023-03-01T00:36:12;-0.50;61.20
30889;DHT22;51092;50.874;7.024;2023-03-01T00:37:13;-0.50;61.30
30889;DHT22;51092;50.874;7.024;2023-03-01T00:38:16;-0.40;61.10
30889;DHT22;51092;50.874;7.024;2023-03-01T00:39:17;-0.40;61.20
30889;DHT22;51092;50.874;7.024;2023-03-01T00:40:21;-0.50;61.30
30889;DHT22;51092;50.874;7.024;2023-03-01T00:41:23;-0.50;61.30
30889;DHT22;51092;50.874;7.024;2023-03-01T00:42:27;-0.40;61.20
30889;DHT22;51092;50.874;7.024;2023-03-01T00:43:30;-0.40;61.20
30889;DHT22;51092;50.874;7.024;2023-03-01T00:44:32;-0.40;61.20
30889;DHT22;51092;50.874;7.024;2023-03-01T00:45:38;-0.40;61.30
30889;DHT22;51092;50.874;7.024;2023-03-01T00:46:40;-0.40;61.30
30889;DHT22;51092;50.874;7.024;2023-03-01T00:47:44;-0.40;61.40
30889;DHT22;51092;50.874;7.024;2023-03-01T00:48:45;-0.40;61.30
30889;DHT22;51092;50.874;7.024;2023-03-01T00:49:48;-0.40;61.40
30889;DHT22;51092;50.874;7.024;2023-03-01T00:50:49;-0.40;61.40
30889;DHT22;51092;50.874;7.024;2023-03-01T00:51:52;-0.50;61.70
30889;DHT22;51092;50.874;7.024;2023-03-01T00:52:54;-0.40;61.50
30889;DHT22;51092;50.874;7.024;2023-03-01T00:54:00;-0.50;61.70
30889;DHT22;51092;50.874;7.024;2023-03-01T00:55:02;-0.40;61.70
30889;DHT22;51092;50.874;7.024;2023-03-01T00:56:06;-0.40;61.70
30889;DHT22;51092;50.874;7.024;2023-03-01T00:57:08;-0.40;61.60
30889;DHT22;51092;50.874;7.024;2023-03-01T00:58:11;-0.50;61.80
30889;DHT22;51092;50.874;7.024;2023-03-01T00:59:12;-0.50;61.90
30889;DHT22;51092;50.874;7.024;2023-03-01T01:00:15;-0.50;62.00
30889;DHT22;51092;50.874;7.024;2023-03-01T01:01:19;-0.50;62.20
30889;DHT22;51092;50.874;7.024;2023-03-01T01:02:25;-0.50;62.40
30889;DHT22;51092;50.874;7.024;2023-03-01T01:03:28;-0.50;62.20
30889;DHT22;51092;50.874;7.024;2023-03-01T01:04:30;-0.60;62.30
30889;DHT22;51092;50.874;7.024;2023-03-01T01:05:34;-0.60;62.30
30889;DHT22;51092;50.874;7.024;2023-03-01T01:06:38;-0.50;62.30
30889;DHT22;51092;50.874;7.024;2023-03-01T01:07:40;-0.50;62.20
30889;DHT22;51092;50.874;7.024;2023-03-01T01:08:44;-0.50;62.10
30889;DHT22;51092;50.874;7.024;2023-03-01T01:09:46;-0.60;62.40
30889;DHT22;51092;50.874;7.024;2023-03-01T01:10:48;-0.60;62.40
30889;DHT22;51092;50.874;7.024;2023-03-01T01:11:51;-0.60;62.50
30889;DHT22;51092;50.874;7.024;2023-03-01T01:12:53;-0.70;62.80
30889;DHT22;51092;50.874;7.024;2023-03-01T01:13:55;-0.70;62.90
30889;DHT22;51092;50.874;7.024;2023-03-01T01:14:58;-0.70;63.00
30889;DHT22;51092;50.874;7.024;2023-03-01T01:16:00;-0.70;63.10
30889;DHT22;51092;50.874;7.024;2023-03-01T01:17:03;-0.70;63.20
30889;DHT22;51092;50.874;7.024;2023-03-01T01:18:05;-0.70;63.20
30889;DHT22;51092;50.874;7.024;2023-03-01T01:19:10;-0.70;63.30
30889;DHT22;51092;50.874;7.024;2023-03-01T01:20:12;-0.70;63.20
30889;DHT22;51092;50.874;7.024;2023-03-01T01:21:17;-0.70;63.20
30889;DHT22;51092;50.874;7.024;2023-03-01T01:22:19;-0.70;63.10
30889;DHT22;51092;50.874;7.024;2023-03-01T01:23:22;-0.70;63.10
30889;DHT22;51092;50.874;7.024;2023-03-01T01:24:23;-0.70;63.10
30889;DHT22;51092;50.874;7.024;2023-03-01T01:25:26;-0.70;63.00
30889;DHT22;51092;50.874;7.024;2023-03-01T01:26:29;-0.70;63.30
30889;DHT22;51092;50.874;7.024;2023-03-01T01:27:32;-0.70;63.50
30889;DHT22;51092;50.874;7.024;2023-03-01T01:28:33;-0.80;63.70
30889;DHT22;51092;50.874;7.024;2023-03-01T01:29:36;-0.80;63.60
30889;DHT22;51092;50.874;7.024;2023-03-01T01:30:38;-0.80;63.60
30889;DHT22;51092;50.874;7.024;2023-03-01T01:31:42;-0.80;63.40
30889;DHT22;51092;50.874;7.024;2023-03-01T01:32:43;-0.80;63.30
30889;DHT22;51092;50.874;7.024;2023-03-01T01:33:46;-0.80;63.50
30889;DHT22;51092;50.874;7.024;2023-03-01T01:34:51;-0.80;63.80
30889;DHT22;51092;50.874;7.024;2023-03-01T01:35:53;-0.80;63.90
30889;DHT22;51092;50.874;7.024;2023-03-01T01:36:55;-0.90;64.40
30889;DHT22;51092;50.874;7.024;2023-03-01T01:37:58;-0.90;64.50
30889;DHT22;51092;50.874;7.024;2023-03-01T01:39:00;-0.90;64.60
30889;DHT22;51092;50.874;7.024;2023-03-01T01:40:04;-0.80;64.30
30889;DHT22;51092;50.874;7.024;2023-03-01T01:41:06;-0.80;64.20
30889;DHT22;51092;50.874;7.024;2023-03-01T01:42:14;-0.80;64.10
30889;DHT22;51092;50.874;7.024;2023-03-01T01:43:19;-0.90;64.40
30889;DHT22;51092;50.874;7.024;2023-03-01T01:44:24;-0.90;64.30
30889;DHT22;51092;50.874;7.024;2023-03-01T01:45:32;-0.90;64.40
30889;DHT22;51092;50.874;7.024;2023-03-01T01:46:37;-0.90;64.30
30889;DHT22;51092;50.874;7.024;2023-03-01T01:47:40;-0.90;64.20
30889;DHT22;51092;50.874;7.024;2023-03-01T01:48:46;-0.90;64.40
30889;DHT22;51092;50.874;7.024;2023-03-01T01:49:54;-0.90;64.30
30889;DHT22;51092;50.874;7.024;2023-03-01T01:50:59;-0.90;64.30
30889;DHT22;51092;50.874;7.024;2023-03-01T01:52:07;-0.80;64.20
30889;DHT22;51092;50.874;7.024;2023-03-01T01:53:14;-0.90;64.20
30889;DHT22;51092;50.874;7.024;2023-03-01T01:54:21;-0.90;64.30
30889;DHT22;51092;50.874;7.024;2023-03-01T01:55:27;-0.90;64.10
30889;DHT22;51092;50.874;7.024;2023-03-01T01:56:29;-0.90;64.00
30889;DHT22;51092;50.874;7.024;2023-03-01T01:57:34;-0.90;64.20
30889;DHT22;51092;50.874;7.024;2023-03-01T01:58:37;-0.90;64.20
30889;DHT22;51092;50.874;7.024;2023-03-01T01:59:43;-0.90;64.40
30889;DHT22;51092;50.874;7.024;2023-03-01T02:00:46;-1.00;64.70
30889;DHT22;51092;50.874;7.024;2023-03-01T02:01:49;-1.00;64.70
30889;DHT22;51092;50.874;7.024;2023-03-01T02:02:55;-1.00;64.70
30889;DHT22;51092;50.874;7.024;2023-03-01T02:03:58;-1.00;64.80
30889;DHT22;51092;50.874;7.024;2023-03-01T02:05:08;-1.00;64.90
30889;DHT22;51092;50.874;7.024;2023-03-01T02:06:15;-1.00;65.00
30889;DHT22;51092;50.874;7.024;2023-03-01T02:07:21;-1.00;65.00
30889;DHT22;51092;50.874;7.024;2023-03-01T02:08:27;-1.00;65.00
30889;DHT22;51092;50.874;7.024;2023-03-01T02:09:32;-1.00;64.90
30889;DHT22;51092;50.874;7.024;2023-03-01T02:10:35;-1.00;65.00
30889;DHT22;51092;50.874;7.024;2023-03-01T02:11:38;-1.00;65.10
30889;DHT22;51092;50.874;7.024;2023-03-01T02:12:41;-1.00;65.10
30889;DHT22;51092;50.874;7.024;2023-03-01T02:13:43;-1.00;65.20
30889;DHT22;51092;50.874;7.024;2023-03-01T02:14:45;-1.00;65.10
30889;DHT22;51092;50.874;7.024;2023-03-01T02:15:47;-1.10;65.50
30889;DHT22;51092;50.874;7.024;2023-03-01T02:16:49;-1.00;65.20
30889;DHT22;51092;50.874;7.024;2023-03-01T02:17:52;-1.00;65.20
30889;DHT22;51092;50.874;7.024;2023-03-01T02:18:54;-1.00;65.10
30889;DHT22;51092;50.874;7.024;2023-03-01T02:20:09;-1.00;65.00
30889;DHT22;51092;50.874;7.024;2023-03-01T02:21:29;-1.10;65.10
30889;DHT22;51092;50.874;7.024;2023-03-01T02:22:32;-1.10;65.00
30889;DHT22;51092;50.874;7.024;2023-03-01T02:23:36;-1.10;65.00
30889;DHT22;51092;50.874;7.024;2023-03-01T02:24:43;-1.10;64.70
30889;DHT22;51092;50.874;7.024;2023-03-01T02:25:53;-1.10;64.50
30889;DHT22;51092;50.874;7.024;2023-03-01T02:26:57;-1.10;64.30
30889;DHT22;51092;50.874;7.024;2023-03-01T02:28:08;-1.10;64.20
30889;DHT22;51092;50.874;7.024;2023-03-01T02:29:12;-1.10;64.20
30889;DHT22;51092;50.874;7.024;2023-03-01T02:30:15;-1.10;64.00
30889;DHT22;51092;50.874;7.024;2023-03-01T02:31:18;-1.10;64.20
30889;DHT22;51092;50.874;7.024;2023-03-01T02:32:39;-1.10;64.80
30889;DHT22;51092;50.874;7.024;2023-03-01T02:33:43;-1.20;65.80
30889;DHT22;51092;50.874;7.024;2023-03-01T02:34:45;-1.20;66.10
30889;DHT22;51092;50.874;7.024;2023-03-01T02:35:47;-1.20;66.10
30889;DHT22;51092;50.874;7.024;2023-03-01T02:36:53;-1.30;66.30
30889;DHT22;51092;50.874;7.024;2023-03-01T02:37:57;-1.30;66.30
30889;DHT22;51092;50.874;7.024;2023-03-01T02:39:05;-1.30;66.10
30889;DHT22;51092;50.874;7.024;2023-03-01T02:40:13;-1.30;66.10
30889;DHT22;51092;50.874;7.024;2023-03-01T02:41:16;-1.30;66.10
30889;DHT22;51092;50.874;7.024;2023-03-01T02:42:28;-1.30;66.60
30889;DHT22;51092;50.874;7.024;2023-03-01T02:43:33;-1.40;67.10
30889;DHT22;51092;50.874;7.024;2023-03-01T02:44:37;-1.40;67.50
30889;DHT22;51092;50.874;7.024;2023-03-01T02:45:47;-1.50;67.90
30889;DHT22;51092;50.874;7.024;2023-03-01T02:46:51;-1.50;68.10
30889;DHT22;51092;50.874;7.024;2023-03-01T02:47:53;-1.50;68.20
30889;DHT22;51092;50.874;7.024;2023-03-01T02:49:00;-1.50;68.10
30889;DHT22;51092;50.874;7.024;2023-03-01T02:50:01;-1.50;68.20
30889;DHT22;51092;50.874;7.024;2023-03-01T02:51:07;-1.50;68.40
30889;DHT22;51092;50.874;7.024;2023-03-01T02:52:21;-1.50;68.30
30889;DHT22;51092;50.874;7.024;2023-03-01T02:53:32;-1.50;68.50
30889;DHT22;51092;50.874;7.024;2023-03-01T02:54:40;-1.50;68.40
30889;DHT22;51092;50.874;7.024;2023-03-01T02:55:44;-1.50;68.70
30889;DHT22;51092;50.874;7.024;2023-03-01T02:56:45;-1.60;68.80
30889;DHT22;51092;50.874;7.024;2023-03-01T02:57:49;-1.60;68.70
30889;DHT22;51092;50.874;7.024;2023-03-01T02:58:52;-1.60;68.60
30889;DHT22;51092;50.874;7.024;2023-03-01T02:59:57;-1.60;68.50
30889;DHT22;51092;50.874;7.024;2023-03-01T03:01:00;-1.60;68.60
30889;DHT22;51092;50.874;7.024;2023-03-01T03:02:03;-1.60;68.40
30889;DHT22;51092;50.874;7.024;2023-03-01T03:03:04;-1.60;68.50
30889;DHT22;51092;50.874;7.024;2023-03-01T03:04:10;-1.60;68.70
30889;DHT22;51092;50.874;7.024;2023-03-01T03:05:14;-1.70;69.10
30889;DHT22;51092;50.874;7.024;2023-03-01T03:06:16;-1.70;69.30
30889;DHT22;51092;50.874;7.024;2023-03-01T03:07:18;-1.70;69.30
30889;DHT22;51092;50.874;7.024;2023-03-01T03:08:20;-1.70;69.50
30889;DHT22;51092;50.874;7.024;2023-03-01T03:09:24;-1.70;69.70
30889;DHT22;51092;50.874;7.024;2023-03-01T03:10:29;-1.80;69.80
30889;DHT22;51092;50.874;7.024;2023-03-01T03:11:31;-1.80;69.80
30889;DHT22;51092;50.874;7.024;2023-03-01T03:12:34;-1.80;69.70
30889;DHT22;51092;50.874;7.024;2023-03-01T03:13:35;-1.80;69.70
30889;DHT22;51092;50.874;7.024;2023-03-01T03:14:38;-1.80;69.60
30889;DHT22;51092;50.874;7.024;2023-03-01T03:15:42;-1.80;69.60
30889;DHT22;51092;50.874;7.024;2023-03-01T03:16:46;-1.80;69.50
30889;DHT22;51092;50.874;7.024;2023-03-01T03:17:49;-1.80;69.70
30889;DHT22;51092;50.874;7.024;2023-03-01T03:18:52;-1.80;69.80
30889;DHT22;51092;50.874;7.024;2023-03-01T03:19:54;-1.90;69.80
30889;DHT22;51092;50.874;7.024;2023-03-01T03:20:56;-1.90;69.60
30889;DHT22;51092;50.874;7.024;2023-03-01T03:21:58;-1.90;69.40
30889;DHT22;51092;50.874;7.024;2023-03-01T03:23:03;-1.90;69.30
30889;DHT22;51092;50.874;7.024;2023-03-01T03:24:05;-1.90;69.10
30889;DHT22;51092;50.874;7.024;2023-03-01T03:25:07;-1.90;69.10
30889;DHT22;51092;50.874;7.024;2023-03-01T03:26:10;-1.80;68.80
30889;DHT22;51092;50.874;7.024;2023-03-01T03:27:15;-1.80;68.80
30889;DHT22;51092;50.874;7.024;2023-03-01T03:28:17;-1.90;69.00
30889;DHT22;51092;50.874;7.024;2023-03-01T03:29:19;-1.80;68.90
30889;DHT22;51092;50.874;7.024;2023-03-01T03:30:21;-1.80;68.90
30889;DHT22;51092;50.874;7.024;2023-03-01T03:31:25;-1.80;68.70
30889;DHT22;51092;50.874;7.024;2023-03-01T03:32:26;-1.80;68.80
30889;DHT22;51092;50.874;7.024;2023-03-01T03:33:29;-1.80;68.70
30889;DHT22;51092;50.874;7.024;2023-03-01T03:34:30;-1.90;68.80
30889;DHT22;51092;50.874;7.024;2023-03-01T03:35:37;-1.80;68.40
30889;DHT22;51092;50.874;7.024;2023-03-01T03:36:39;-1.80;68.30
30889;DHT22;51092;50.874;7.024;2023-03-01T03:37:42;-1.70;68.20
30889;DHT22;51092;50.874;7.024;2023-03-01T03:39:01;-1.70;68.20
30889;DHT22;51092;50.874;7.024;2023-03-01T03:40:04;-1.70;68.20
30889;DHT22;51092;50.874;7.024;2023-03-01T03:41:16;-1.70;68.00
30889;DHT22;51092;50.874;7.024;2023-03-01T03:42:18;-1.70;67.90
30889;DHT22;51092;50.874;7.024;2023-03-01T03:43:21;-1.80;67.90
30889;DHT22;51092;50.874;7.024;2023-03-01T03:44:24;-1.80;67.80
30889;DHT22;51092;50.874;7.024;2023-03-01T03:45:25;-1.80;67.60
30889;DHT22;51092;50.874;7.024;2023-03-01T03:46:29;-1.80;67.80
30889;DHT22;51092;50.874;7.024;2023-03-01T03:47:31;-1.80;68.60
30889;DHT22;51092;50.874;7.024;2023-03-01T03:48:34;-1.90;69.80
30889;DHT22;51092;50.874;7.024;2023-03-01T03:49:36;-2.00;70.70
30889;DHT22;51092;50.874;7.024;2023-03-01T03:50:39;-2.10;71.50
30889;DHT22;51092;50.874;7.024;2023-03-01T03:51:41;-2.10;72.00
30889;DHT22;51092;50.874;7.024;2023-03-01T03:52:44;-2.10;72.10
30889;DHT22;51092;50.874;7.024;2023-03-01T03:53:46;-2.10;72.30
30889;DHT22;51092;50.874;7.024;2023-03-01T03:54:51;-2.20;72.80
30889;DHT22;51092;50.874;7.024;2023-03-01T03:55:53;-2.20;73.00
30889;DHT22;51092;50.874;7.024;2023-03-01T03:56:56;-2.20;73.00
30889;DHT22;51092;50.874;7.024;2023-03-01T03:57:58;-2.30;73.50
30889;DHT22;51092;50.874;7.024;2023-03-01T03:59:03;-2.20;73.20
30889;DHT22;51092;50.874;7.024;2023-03-01T04:00:10;-2.20;73.20
30889;DHT22;51092;50.874;7.024;2023-03-01T04:01:13;-2.20;73.00
30889;DHT22;51092;50.874;7.024;2023-03-01T04:02:16;-2.20;73.30
30889;DHT22;51092;50.874;7.024;2023-03-01T04:03:23;-2.20;74.30
30889;DHT22;51092;50.874;7.024;2023-03-01T04:04:26;-2.30;74.70
30889;DHT22;51092;50.874;7.024;2023-03-01T04:05:27;-2.30;74.90
30889;DHT22;51092;50.874;7.024;2023-03-01T04:06:33;-2.40;76.10
30889;DHT22;51092;50.874;7.024;2023-03-01T04:07:35;-2.40;76.50
30889;DHT22;51092;50.874;7.024;2023-03-01T04:08:37;-2.40;76.90
30889;DHT22;51092;50.874;7.024;2023-03-01T04:09:43;-2.50;77.60
30889;DHT22;51092;50.874;7.024;2023-03-01T04:10:47;-2.50;77.90
30889;DHT22;51092;50.874;7.024;2023-03-01T04:11:49;-2.40;78.60
30889;DHT22;51092;50.874;7.024;2023-03-01T04:12:52;-2.40;78.50
30889;DHT22;51092;50.874;7.024;2023-03-01T04:13:55;-2.40;77.80
30889;DHT22;51092;50.874;7.024;2023-03-01T04:14:58;-2.40;77.80
30889;DHT22;51092;50.874;7.024;2023-03-01T04:16:00;-2.40;77.80
30889;DHT22;51092;50.874;7.024;2023-03-01T04:17:02;-2.40;77.30
30889;DHT22;51092;50.874;7.024;2023-03-01T04:18:09;-2.40;76.70
30889;DHT22;51092;50.874;7.024;2023-03-01T04:19:12;-2.40;76.60
30889;DHT22;51092;50.874;7.024;2023-03-01T04:20:15;-2.50;76.80
30889;DHT22;51092;50.874;7.024;2023-03-01T04:21:20;-2.40;77.70
30889;DHT22;51092;50.874;7.024;2023-03-01T04:22:22;-2.50;78.10
30889;DHT22;51092;50.874;7.024;2023-03-01T04:23:30;-2.50;78.90
30889;DHT22;51092;50.874;7.024;2023-03-01T04:24:32;-2.50;79.10
30889;DHT22;51092;50.874;7.024;2023-03-01T04:25:34;-2.50;78.60
30889;DHT22;51092;50.874;7.024;2023-03-01T04:26:36;-2.50;78.50
30889;DHT22;51092;50.874;7.024;2023-03-01T04:27:38;-2.50;79.10
30889;DHT22;51092;50.874;7.024;2023-03-01T04:28:42;-2.40;78.70
30889;DHT22;51092;50.874;7.024;2023-03-01T04:29:46;-2.40;78.20
30889;DHT22;51092;50.874;7.024;2023-03-01T04:30:47;-2.40;77.70
30889;DHT22;51092;50.874;7.024;2023-03-01T04:31:50;-2.40;77.60
30889;DHT22;51092;50.874;7.024;2023-03-01T04:32:51;-2.40;77.50
30889;DHT22;51092;50.874;7.024;2023-03-01T04:33:55;-2.40;77.50
30889;DHT22;51092;50.874;7.024;2023-03-01T04:34:57;-2.30;77.10
30889;DHT22;51092;50.874;7.024;2023-03-01T04:36:03;-2.40;77.10
30889;DHT22;51092;50.874;7.024;2023-03-01T04:37:06;-2.30;76.50
30889;DHT22;51092;50.874;7.024;2023-03-01T04:38:07;-2.30;76.00
30889;DHT22;51092;50.874;7.024;2023-03-01T04:39:10;-2.30;76.00
30889;DHT22;51092;50.874;7.024;2023-03-01T04:40:12;-2.30;75.90
30889;DHT22;51092;50.874;7.024;2023-03-01T04:41:18;-2.30;75.70
30889;DHT22;51092;50.874;7.024;2023-03-01T04:42:19;-2.30;75.40
30889;DHT22;51092;50.874;7.024;2023-03-01T04:43:22;-2.20;74.80
30889;DHT22;51092;50.874;7.024;2023-03-01T04:44:23;-2.30;74.70
30889;DHT22;51092;50.874;7.024;2023-03-01T04:45:26;-2.30;75.10
30889;DHT22;51092;50.874;7.024;2023-03-01T04:46:28;-2.30;75.50
30889;DHT22;51092;50.874;7.024;2023-03-01T04:47:31;-2.30;75.50
30889;DHT22;51092;50.874;7.024;2023-03-01T04:48:34;-2.30;75.40
30889;DHT22;51092;50.874;7.024;2023-03-01T04:49:38;-2.30;75.40
30889;DHT22;51092;50.874;7.024;2023-03-01T04:50:39;-2.30;75.80
30889;DHT22;51092;50.874;7.024;2023-03-01T04:51:42;-2.30;75.90
30889;DHT22;51092;50.874;7.024;2023-03-01T04:52:44;-2.30;76.20
30889;DHT22;51092;50.874;7.024;2023-03-01T04:53:47;-2.30;76.00
30889;DHT22;51092;50.874;7.024;2023-03-01T04:54:48;-2.30;75.90
30889;DHT22;51092;50.874;7.024;2023-03-01T04:55:51;-2.30;76.00
30889;DHT22;51092;50.874;7.024;2023-03-01T04:56:52;-2.30;75.90
30889;DHT22;51092;50.874;7.024;2023-03-01T04:57:55;-2.30;75.50
30889;DHT22;51092;50.874;7.024;2023-03-01T04:58:56;-2.20;75.40
30889;DHT22;51092;50.874;7.024;2023-03-01T04:59:59;-2.20;75.80
30889;DHT22;51092;50.874;7.024;2023-03-01T05:01:00;-2.30;76.40
30889;DHT22;51092;50.874;7.024;2023-03-01T05:02:03;-2.30;76.10
30889;DHT22;51092;50.874;7.024;2023-03-01T05:03:04;-2.40;76.40
30889;DHT22;51092;50.874;7.024;2023-03-01T05:04:07;-2.40;76.60
30889;DHT22;51092;50.874;7.024;2023-03-01T05:05:16;-2.40;76.80
30889;DHT22;51092;50.874;7.024;2023-03-01T05:06:20;-2.40;76.70
30889;DHT22;51092;50.874;7.024;2023-03-01T05:07:22;-2.40;76.40
30889;DHT22;51092;50.874;7.024;2023-03-01T05:08:25;-2.40;76.40
30889;DHT22;51092;50.874;7.024;2023-03-01T05:09:28;-2.40;76.50
30889;DHT22;51092;50.874;7.024;2023-03-01T05:10:31;-2.40;76.50
30889;DHT22;51092;50.874;7.024;2023-03-01T05:11:34;-2.30;76.70
30889;DHT22;51092;50.874;7.024;2023-03-01T05:12:37;-2.30;76.80
30889;DHT22;51092;50.874;7.024;2023-03-01T05:13:40;-2.30;76.60
30889;DHT22;51092;50.874;7.024;2023-03-01T05:14:41;-2.40;76.80
30889;DHT22;51092;50.874;7.024;2023-03-01T05:15:46;-2.30;76.20
30889;DHT22;51092;50.874;7.024;2023-03-01T05:16:48;-2.40;76.50
30889;DHT22;51092;50.874;7.024;2023-03-01T05:17:51;-2.40;76.10
30889;DHT22;51092;50.874;7.024;2023-03-01T05:18:52;-2.40;76.90
30889;DHT22;51092;50.874;7.024;2023-03-01T05:19:56;-2.40;77.00
30889;DHT22;51092;50.874;7.024;2023-03-01T05:21:05;-2.40;77.60
30889;DHT22;51092;50.874;7.024;2023-03-01T05:22:08;-2.40;77.50
30889;DHT22;51092;50.874;7.024;2023-03-01T05:23:10;-2.50;78.10
30889;DHT22;51092;50.874;7.024;2023-03-01T05:24:12;-2.50;78.10
30889;DHT22;51092;50.874;7.024;2023-03-01T05:25:14;-2.50;78.20
30889;DHT22;51092;50.874;7.024;2023-03-01T05:26:18;-2.40;77.50
30889;DHT22;51092;50.874;7.024;2023-03-01T05:27:35;-2.50;77.50
30889;DHT22;51092;50.874;7.024;2023-03-01T05:28:38;-2.50;78.60
30889;DHT22;51092;50.874;7.024;2023-03-01T05:29:39;-2.50;78.60
30889;DHT22;51092;50.874;7.024;2023-03-01T05:30:42;-2.50;78.40
30889;DHT22;51092;50.874;7.024;2023-03-01T05:31:44;-2.50;78.60
30889;DHT22;51092;50.874;7.024;2023-03-01T05:32:49;-2.50;78.50
30889;DHT22;51092;50.874;7.024;2023-03-01T05:33:51;-2.50;78.30
30889;DHT22;51092;50.874;7.024;2023-03-01T05:34:54;-2.50;78.50
30889;DHT22;51092;50.874;7.024;2023-03-01T05:35:59;-2.40;78.80
30889;DHT22;51092;50.874;7.024;2023-03-01T05:37:03;-2.50;78.70
30889;DHT22;51092;50.874;7.024;2023-03-01T05:38:06;-2.40;78.00
30889;DHT22;51092;50.874;7.024;2023-03-01T05:39:10;-2.50;78.00
30889;DHT22;51092;50.874;7.024;2023-03-01T05:40:14;-2.50;78.30
30889;DHT22;51092;50.874;7.024;2023-03-01T05:41:17;-2.40;78.10
30889;DHT22;51092;50.874;7.024;2023-03-01T05:42:19;-2.40;77.70
30889;DHT22;51092;50.874;7.024;2023-03-01T05:43:21;-2.40;77.60
30889;DHT22;51092;50.874;7.024;2023-03-01T05:44:23;-2.40;77.40
30889;DHT22;51092;50.874;7.024;2023-03-01T05:45:27;-2.40;77.10
30889;DHT22;51092;50.874;7.024;2023-03-01T05:46:28;-2.40;76.90
30889;DHT22;51092;50.874;7.024;2023-03-01T05:47:31;-2.40;76.20
30889;DHT22;51092;50.874;7.024;2023-03-01T05:48:34;-2.30;75.80
30889;DHT22;51092;50.874;7.024;2023-03-01T05:49:36;-2.40;75.70
30889;DHT22;51092;50.874;7.024;2023-03-01T05:50:39;-2.30;75.30
30889;DHT22;51092;50.874;7.024;2023-03-01T05:51:43;-2.40;75.40
30889;DHT22;51092;50.874;7.024;2023-03-01T05:52:51;-2.40;75.10
30889;DHT22;51092;50.874;7.024;2023-03-01T05:53:55;-2.40;75.00
30889;DHT22;51092;50.874;7.024;2023-03-01T05:54:57;-2.50;75.10
30889;DHT22;51092;50.874;7.024;2023-03-01T05:55:59;-2.50;75.00
30889;DHT22;51092;50.874;7.024;2023-03-01T05:57:04;-2.50;74.70
30889;DHT22;51092;50.874;7.024;2023-03-01T05:58:07;-2.60;74.80
30889;DHT22;51092;50.874;7.024;2023-03-01T05:59:11;-2.60;74.70
30889;DHT22;51092;50.874;7.024;2023-03-01T06:00:14;-2.60;74.60
30889;DHT22;51092;50.874;7.024;2023-03-01T06:01:17;-2.60;74.60
30889;DHT22;51092;50.874;7.024;2023-03-01T06:02:18;-2.60;74.60
30889;DHT22;51092;50.874;7.024;2023-03-01T06:03:21;-2.60;74.60
30889;DHT22;51092;50.874;7.024;2023-03-01T06:04:22;-2.60;74.50
30889;DHT22;51092;50.874;7.024;2023-03-01T06:05:25;-2.60;74.20
30889;DHT22;51092;50.874;7.024;2023-03-01T06:06:29;-2.60;74.20
30889;DHT22;51092;50.874;7.024;2023-03-01T06:07:31;-2.60;74.20
30889;DHT22;51092;50.874;7.024;2023-03-01T06:08:35;-2.60;74.10
30889;DHT22;51092;50.874;7.024;2023-03-01T06:09:37;-2.60;74.00
30889;DHT22;51092;50.874;7.024;2023-03-01T06:10:40;-2.60;74.10
30889;DHT22;51092;50.874;7.024;2023-03-01T06:11:43;-2.60;74.00
30889;DHT22;51092;50.874;7.024;2023-03-01T06:12:45;-2.60;74.10
30889;DHT22;51092;50.874;7.024;2023-03-01T06:13:48;-2.60;74.40
30889;DHT22;51092;50.874;7.024;2023-03-01T06:14:49;-2.60;74.60
30889;DHT22;51092;50.874;7.024;2023-03-01T06:15:52;-2.60;74.60
30889;DHT22;51092;50.874;7.024;2023-03-01T06:16:53;-2.60;74.80
30889;DHT22;51092;50.874;7.024;2023-03-01T06:17:56;-2.60;75.00
30889;DHT22;51092;50.874;7.024;2023-03-01T06:18:59;-2.50;74.60
30889;DHT22;51092;50.874;7.024;2023-03-01T06:20:02;-2.60;75.00
30889;DHT22;51092;50.874;7.024;2023-03-01T06:21:03;-2.60;75.30
30889;DHT22;51092;50.874;7.024;2023-03-01T06:22:06;-2.60;76.50
30889;DHT22;51092;50.874;7.024;2023-03-01T06:23:08;-2.60;77.00
30889;DHT22;51092;50.874;7.024;2023-03-01T06:24:11;-2.60;77.10
30889;DHT22;51092;50.874;7.024;2023-03-01T06:25:16;-2.60;77.20
30889;DHT22;51092;50.874;7.024;2023-03-01T06:26:19;-2.70;77.50
30889;DHT22;51092;50.874;7.024;2023-03-01T06:27:21;-2.70;77.50
30889;DHT22;51092;50.874;7.024;2023-03-01T06:28:23;-2.70;77.70
30889;DHT22;51092;50.874;7.024;2023-03-01T06:29:24;-2.60;77.40
30889;DHT22;51092;50.874;7.024;2023-03-01T06:30:27;-2.60;76.90
30889;DHT22;51092;50.874;7.024;2023-03-01T06:31:28;-2.60;77.00
30889;DHT22;51092;50.874;7.024;2023-03-01T06:32:31;-2.60;77.10
30889;DHT22;51092;50.874;7.024;2023-03-01T06:33:33;-2.70;77.40
30889;DHT22;51092;50.874;7.024;2023-03-01T06:34:35;-2.60;77.10
30889;DHT22;51092;50.874;7.024;2023-03-01T06:35:37;-2.70;77.30
30889;DHT22;51092;50.874;7.024;2023-03-01T06:36:40;-2.60;77.10
30889;DHT22;51092;50.874;7.024;2023-03-01T06:37:41;-2.60;77.00
30889;DHT22;51092;50.874;7.024;2023-03-01T06:38:44;-2.50;76.40
30889;DHT22;51092;50.874;7.024;2023-03-01T06:39:47;-2.50;75.90
30889;DHT22;51092;50.874;7.024;2023-03-01T06:40:52;-2.50;75.30